sensor_id;sensor_type;location;lat;lon;timestamp;temperature;humidity
3360;DHT22;1693;49.602;11.046;2023-07-20T00:01:53;16.60;99.90
3360;DHT22;1693;49.602;11.046;2023-07-20T00:04:20;16.60;99.90
3360;DHT22;1693;49.602;11.046;2023-07-20T00:06:47;16.60;99.90
3360;DHT22;1693;49.602;11.046;2023-07-20T00:09:14;16.60;99.90
3360;DHT22;1693;49.602;11.046;2023-07-20T00:11:48;16.60;99.90
3360;DHT22;1693;49.602;11.046;2023-07-20T00:14:16;16.60;99.90
3360;DHT22;1693;49.602;11.046;2023-07-20T00:16:43;16.60;99.90
3360;DHT22;1693;49.602;11.046;2023-07-20T00:19:13;16.60;99.90
3360;DHT22;1693;49.602;11.046;2023-07-20T00:21:41;16.50;99.90
3360;DHT22;1693;49.602;11.046;2023-07-20T00:24:08;16.40;99.90
3360;DHT22;1693;49.602;11.046;2023-07-20T00:26:35;16.50;99.90
3360;DHT22;1693;49.602;11.046;2023-07-20T00:29:02;16.40;99.90
3360;DHT22;1693;49.602;11.046;2023-07-20T00:31:29;16.40;99.90
3360;DHT22;1693;49.602;11.046;2023-07-20T00:33:56;16.40;99.90
3360;DHT22;1693;49.602;11.046;2023-07-20T00:36:25;16.40;99.90
3360;DHT22;1693;49.602;11.046;2023-07-20T00:38:52;16.30;99.90
3360;DHT22;1693;49.602;11.046;2023-07-20T00:41:19;16.30;99.90
3360;DHT22;1693;49.602;11.046;2023-07-20T00:43:46;16.20;99.90
3360;DHT22;1693;49.602;11.046;2023-07-20T00:46:13;16.20;99.90
3360;DHT22;1693;49.602;11.046;2023-07-20T00:48:41;16.20;99.90
3360;DHT22;1693;49.602;11.046;2023-07-20T00:51:08;16.20;99.90
3360;DHT22;1693;49.602;11.046;2023-07-20T00:53:37;16.20;99.90
3360;DHT22;1693;49.602;11.046;2023-07-20T00:56:04;16.20;99.90
3360;DHT22;1693;49.602;11.046;2023-07-20T00:58:33;16.20;99.90
3360;DHT22;1693;49.602;11.046;2023-07-20T01:01:03;16.30;99.90
3360;DHT22;1693;49.602;11.046;2023-07-20T01:03:33;16.20;99.90
3360;DHT22;1693;49.602;11.046;2023-07-20T01:06:08;16.30;99.90
3360;DHT22;1693;49.602;11.046;2023-07-20T01:08:43;16.20;99.90
3360;DHT22;1693;49.602;11.046;2023-07-20T01:11:16;16.20;99.90
3360;DHT22;1693;49.602;11.046;2023-07-20T01:13:44;16.20;99.90
3360;DHT22;1693;49.602;11.046;2023-07-20T01:16:11;16.10;99.90
3360;DHT22;1693;49.602;11.046;2023-07-20T01:18:38;16.10;99.90
3360;DHT22;1693;49.602;11.046;2023-07-20T01:21:09;16.10;99.90
3360;DHT22;1693;49.602;11.046;2023-07-20T01:24:20;16.10;99.90
3360;DHT22;1693;49.602;11.046;2023-07-20T01:27:07;16.00;99.90
3360;DHT22;1693;49.602;11.046;2023-07-20T01:30:02;15.90;99.90
3360;DHT22;1693;49.602;11.046;2023-07-20T01:32:36;15.80;99.90
3360;DHT22;1693;49.602;11.046;2023-07-20T01:35:06;15.80;99.90
3360;DHT22;1693;49.602;11.046;2023-07-20T01:37:34;15.80;99.90
3360;DHT22;1693;49.602;11.046;2023-07-20T01:40:02;15.80;99.90
3360;DHT22;1693;49.602;11.046;2023-07-20T01:42:29;16.00;99.90
3360;DHT22;1693;49.602;11.046;2023-07-20T01:44:56;16.00;99.90
3360;DHT22;1693;49.602;11.046;2023-07-20T01:47:23;16.10;99.90
3360;DHT22;1693;49.602;11.046;2023-07-20T01:49:52;16.20;99.90
3360;DHT22;1693;49.602;11.046;2023-07-20T01:52:18;16.40;99.90
3360;DHT22;1693;49.602;11.046;2023-07-20T01:54:45;16.40;99.90
3360;DHT22;1693;49.602;11.046;2023-07-20T01:57:12;16.40;99.90
3360;DHT22;1693;49.602;11.046;2023-07-20T01:59:39;16.40;99.90
3360;DHT22;1693;49.602;11.046;2023-07-20T02:02:07;16.50;99.90
3360;DHT22;1693;49.602;11.046;2023-07-20T02:04:35;16.40;99.90
3360;DHT22;1693;49.602;11.046;2023-07-20T02:07:04;16.40;99.90
3360;DHT22;1693;49.602;11.046;2023-07-20T02:09:31;16.40;99.90
3360;DHT22;1693;49.602;11.046;2023-07-20T02:11:58;16.40;99.90
3360;DHT22;1693;49.602;11.046;2023-07-20T02:14:25;16.50;99.90
3360;DHT22;1693;49.602;11.046;2023-07-20T02:19:25;16.80;99.90
3360;DHT22;1693;49.602;11.046;2023-07-20T02:21:51;16.80;99.90
3360;DHT22;1693;49.602;11.046;2023-07-20T02:24:20;16.90;99.90
3360;DHT22;1693;49.602;11.046;2023-07-20T02:26:47;16.80;99.90
3360;DHT22;1693;49.602;11.046;2023-07-20T02:29:14;16.70;99.90
3360;DHT22;1693;49.602;11.046;2023-07-20T02:31:41;16.80;99.90
3360;DHT22;1693;49.602;11.046;2023-07-20T02:34:08;16.80;99.90
3360;DHT22;1693;49.602;11.046;2023-07-20T02:36:36;16.80;99.90
3360;DHT22;1693;49.602;11.046;2023-07-20T02:39:03;16.80;99.90
3360;DHT22;1693;49.602;11.046;2023-07-20T02:41:33;16.70;99.90
3360;DHT22;1693;49.602;11.046;2023-07-20T02:44:00;16.70;99.90
3360;DHT22;1693;49.602;11.046;2023-07-20T02:46:29;16.70;99.90
3360;DHT22;1693;49.602;11.046;2023-07-20T02:48:56;16.60;99.90
3360;DHT22;1693;49.602;11.046;2023-07-20T02:51:23;16.60;99.90
3360;DHT22;1693;49.602;11.046;2023-07-20T02:53:50;16.50;99.90
3360;DHT22;1693;49.602;11.046;2023-07-20T02:56:17;16.50;99.90
3360;DHT22;1693;49.602;11.046;2023-07-20T02:58:45;16.40;99.90
3360;DHT22;1693;49.602;11.046;2023-07-20T03:01:13;16.30;99.90
3360;DHT22;1693;49.602;11.046;2023-07-20T03:03:41;16.20;99.90
3360;DHT22;1693;49.602;11.046;2023-07-20T03:06:12;16.10;99.90
3360;DHT22;1693;49.602;11.046;2023-07-20T03:08:40;16.00;99.90
3360;DHT22;1693;49.602;11.046;2023-07-20T03:11:13;16.00;99.90
3360;DHT22;1693;49.602;11.046;2023-07-20T03:13:41;15.90;99.90
3360;DHT22;1693;49.602;11.046;2023-07-20T03:16:09;16.00;99.90
3360;DHT22;1693;49.602;11.046;2023-07-20T03:18:37;16.00;99.90
3360;DHT22;1693;49.602;11.046;2023-07-20T03:21:04;15.90;99.90
3360;DHT22;1693;49.602;11.046;2023-07-20T03:23:32;15.90;99.90
3360;DHT22;1693;49.602;11.046;2023-07-20T03:25:58;16.00;99.90
3360;DHT22;1693;49.602;11.046;2023-07-20T03:28:26;16.10;99.90
3360;DHT22;1693;49.602;11.046;2023-07-20T03:30:53;16.10;99.90
3360;DHT22;1693;49.602;11.046;2023-07-20T03:33:24;16.10;99.90
3360;DHT22;1693;49.602;11.046;2023-07-20T03:35:52;16.20;99.90
3360;DHT22;1693;49.602;11.046;2023-07-20T03:38:19;16.30;99.90
3360;DHT22;1693;49.602;11.046;2023-07-20T03:40:50;16.40;99.90
3360;DHT22;1693;49.602;11.046;2023-07-20T03:43:17;16.40;99.90
3360;DHT22;1693;49.602;11.046;2023-07-20T03:45:44;16.50;99.90
3360;DHT22;1693;49.602;11.046;2023-07-20T03:48:13;16.50;99.90
3360;DHT22;1693;49.602;11.046;2023-07-20T03:50:42;16.50;99.90
3360;DHT22;1693;49.602;11.046;2023-07-20T03:53:08;16.40;99.90
3360;DHT22;1693;49.602;11.046;2023-07-20T03:55:36;16.30;99.90
3360;DHT22;1693;49.602;11.046;2023-07-20T03:58:03;16.20;99.90
3360;DHT22;1693;49.602;11.046;2023-07-20T04:00:30;16.20;99.90
3360;DHT22;1693;49.602;11.046;2023-07-20T04:02:57;16.30;99.90
3360;DHT22;1693;49.602;11.046;2023-07-20T04:05:24;16.30;99.90
3360;DHT22;1693;49.602;11.046;2023-07-20T04:07:52;16.40;99.90
3360;DHT22;1693;49.602;11.046;2023-07-20T04:10:19;16.50;99.90
3360;DHT22;1693;49.602;11.046;2023-07-20T04:12:47;16.60;99.90
3360;DHT22;1693;49.602;11.046;2023-07-20T04:15:14;16.70;99.90
3360;DHT22;1693;49.602;11.046;2023-07-20T04:17:40;16.60;99.90
3360;DHT22;1693;49.602;11.046;2023-07-20T04:20:08;16.70;99.90
3360;DHT22;1693;49.602;11.046;2023-07-20T04:22:35;16.80;99.90
3360;DHT22;1693;49.602;11.046;2023-07-20T04:25:04;16.90;99.90
3360;DHT22;1693;49.602;11.046;2023-07-20T04:27:31;17.00;99.90
3360;DHT22;1693;49.602;11.046;2023-07-20T04:29:58;17.00;99.90
3360;DHT22;1693;49.602;11.046;2023-07-20T04:32:26;17.20;99.90
3360;DHT22;1693;49.602;11.046;2023-07-20T04:34:53;17.20;99.90
3360;DHT22;1693;49.602;11.046;2023-07-20T04:37:20;17.20;99.90
3360;DHT22;1693;49.602;11.046;2023-07-20T04:39:47;17.10;99.90
3360;DHT22;1693;49.602;11.046;2023-07-20T04:42:15;17.10;99.90
3360;DHT22;1693;49.602;11.046;2023-07-20T04:44:42;17.30;99.90
3360;DHT22;1693;49.602;11.046;2023-07-20T04:47:09;17.50;99.90
3360;DHT22;1693;49.602;11.046;2023-07-20T04:49:36;17.50;99.90
3360;DHT22;1693;49.602;11.046;2023-07-20T04:52:04;17.60;99.90
3360;DHT22;1693;49.602;11.046;2023-07-20T04:54:31;17.60;99.90
3360;DHT22;1693;49.602;11.046;2023-07-20T04:56:58;17.70;99.90
3360;DHT22;1693;49.602;11.046;2023-07-20T04:59:27;17.70;99.90
3360;DHT22;1693;49.602;11.046;2023-07-20T05:01:53;17.70;99.90
3360;DHT22;1693;49.602;11.046;2023-07-20T05:04:20;17.80;99.90
3360;DHT22;1693;49.602;11.046;2023-07-20T05:06:47;17.70;99.90
3360;DHT22;1693;49.602;11.046;2023-07-20T05:09:14;17.80;99.90
3360;DHT22;1693;49.602;11.046;2023-07-20T05:11:41;17.80;99.90
3360;DHT22;1693;49.602;11.046;2023-07-20T05:14:10;17.80;99.90
3360;DHT22;1693;49.602;11.046;2023-07-20T05:16:39;17.70;99.90
3360;DHT22;1693;49.602;11.046;2023-07-20T05:19:06;17.70;99.90
3360;DHT22;1693;49.602;11.046;2023-07-20T05:21:33;17.90;99.90
3360;DHT22;1693;49.602;11.046;2023-07-20T05:24:00;18.10;99.90
3360;DHT22;1693;49.602;11.046;2023-07-20T05:26:27;18.00;99.90
3360;DHT22;1693;49.602;11.046;2023-07-20T05:28:54;17.90;99.90
3360;DHT22;1693;49.602;11.046;2023-07-20T05:31:24;17.90;99.90
3360;DHT22;1693;49.602;11.046;2023-07-20T05:37:14;18.10;99.90
3360;DHT22;1693;49.602;11.046;2023-07-20T05:39:40;18.10;99.90
3360;DHT22;1693;49.602;11.046;2023-07-20T05:42:08;18.10;99.90
3360;DHT22;1693;49.602;11.046;2023-07-20T05:44:36;18.00;99.90
3360;DHT22;1693;49.602;11.046;2023-07-20T05:47:04;18.00;99.90
3360;DHT22;1693;49.602;11.046;2023-07-20T05:49:33;17.90;99.90
3360;DHT22;1693;49.602;11.046;2023-07-20T05:52:00;17.90;99.90
3360;DHT22;1693;49.602;11.046;2023-07-20T05:54:28;18.00;99.90
3360;DHT22;1693;49.602;11.046;2023-07-20T05:56:55;18.00;99.90
3360;DHT22;1693;49.602;11.046;2023-07-20T05:59:23;18.00;99.90
3360;DHT22;1693;49.602;11.046;2023-07-20T06:01:50;18.00;99.90
3360;DHT22;1693;49.602;11.046;2023-07-20T06:04:17;18.10;99.90
3360;DHT22;1693;49.602;11.046;2023-07-20T06:06:44;18.20;99.90
3360;DHT22;1693;49.602;11.046;2023-07-20T06:09:11;18.40;99.90
3360;DHT22;1693;49.602;11.046;2023-07-20T06:11:39;18.50;99.90
3360;DHT22;1693;49.602;11.046;2023-07-20T06:14:07;18.60;99.90
3360;DHT22;1693;49.602;11.046;2023-07-20T06:16:35;18.70;99.90
3360;DHT22;1693;49.602;11.046;2023-07-20T06:19:02;18.80;99.90
3360;DHT22;1693;49.602;11.046;2023-07-20T06:21:29;19.00;99.90
3360;DHT22;1693;49.602;11.046;2023-07-20T06:23:56;19.00;99.90
3360;DHT22;1693;49.602;11.046;2023-07-20T06:26:24;19.00;99.90
3360;DHT22;1693;49.602;11.046;2023-07-20T06:28:52;19.10;99.90
3360;DHT22;1693;49.602;11.046;2023-07-20T06:31:19;19.00;99.90
3360;DHT22;1693;49.602;11.046;2023-07-20T06:33:46;19.00;99.90
3360;DHT22;1693;49.602;11.046;2023-07-20T06:36:17;19.10;99.90
3360;DHT22;1693;49.602;11.046;2023-07-20T06:38:46;19.10;99.90
3360;DHT22;1693;49.602;11.046;2023-07-20T06:41:13;19.20;99.90
3360;DHT22;1693;49.602;11.046;2023-07-20T06:43:45;19.10;99.90
3360;DHT22;1693;49.602;11.046;2023-07-20T06:46:46;19.20;99.90
3360;DHT22;1693;49.602;11.046;2023-07-20T06:49:25;19.20;99.90
3360;DHT22;1693;49.602;11.046;2023-07-20T06:51:52;19.30;99.90
3360;DHT22;1693;49.602;11.046;2023-07-20T06:54:19;19.50;99.90
3360;DHT22;1693;49.602;11.046;2023-07-20T06:56:46;19.40;99.90
3360;DHT22;1693;49.602;11.046;2023-07-20T06:59:13;19.30;99.90
3360;DHT22;1693;49.602;11.046;2023-07-20T07:01:40;19.70;99.90
3360;DHT22;1693;49.602;11.046;2023-07-20T07:04:08;19.90;99.90
3360;DHT22;1693;49.602;11.046;2023-07-20T07:06:36;19.90;99.90
3360;DHT22;1693;49.602;11.046;2023-07-20T07:09:03;19.90;99.90
3360;DHT22;1693;49.602;11.046;2023-07-20T07:11:31;20.00;99.90
3360;DHT22;1693;49.602;11.046;2023-07-20T07:13:58;20.10;99.90
3360;DHT22;1693;49.602;11.046;2023-07-20T07:16:25;20.10;99.90
3360;DHT22;1693;49.602;11.046;2023-07-20T07:18:52;20.20;99.90
3360;DHT22;1693;49.602;11.046;2023-07-20T07:21:20;20.20;99.90
3360;DHT22;1693;49.602;11.046;2023-07-20T07:23:47;20.20;99.90
3360;DHT22;1693;49.602;11.046;2023-07-20T07:26:15;20.30;99.90
3360;DHT22;1693;49.602;11.046;2023-07-20T07:28:42;20.50;99.90
3360;DHT22;1693;49.602;11.046;2023-07-20T07:31:09;20.70;99.90
3360;DHT22;1693;49.602;11.046;2023-07-20T07:33:36;20.70;99.90
3360;DHT22;1693;49.602;11.046;2023-07-20T07:36:04;20.90;99.90
3360;DHT22;1693;49.602;11.046;2023-07-20T07:38:32;20.90;99.90
3360;DHT22;1693;49.602;11.046;2023-07-20T07:40:59;21.10;99.90
3360;DHT22;1693;49.602;11.046;2023-07-20T07:43:26;21.00;99.90
3360;DHT22;1693;49.602;11.046;2023-07-20T07:45:54;20.80;99.90
3360;DHT22;1693;49.602;11.046;2023-07-20T07:48:22;21.00;99.90
3360;DHT22;1693;49.602;11.046;2023-07-20T07:50:50;21.10;99.90
3360;DHT22;1693;49.602;11.046;2023-07-20T07:53:17;21.20;99.90
3360;DHT22;1693;49.602;11.046;2023-07-20T07:55:47;21.60;99.90
3360;DHT22;1693;49.602;11.046;2023-07-20T07:58:14;21.90;99.90
3360;DHT22;1693;49.602;11.046;2023-07-20T08:00:41;22.00;99.90
3360;DHT22;1693;49.602;11.046;2023-07-20T08:03:09;22.00;99.90
3360;DHT22;1693;49.602;11.046;2023-07-20T08:05:36;22.10;99.90
3360;DHT22;1693;49.602;11.046;2023-07-20T08:08:03;22.00;99.90
3360;DHT22;1693;49.602;11.046;2023-07-20T08:10:30;21.90;99.90
3360;DHT22;1693;49.602;11.046;2023-07-20T08:12:59;21.90;99.90
3360;DHT22;1693;49.602;11.046;2023-07-20T08:15:26;22.00;99.90
3360;DHT22;1693;49.602;11.046;2023-07-20T08:17:53;22.20;99.90
3360;DHT22;1693;49.602;11.046;2023-07-20T08:20:21;22.20;99.90
3360;DHT22;1693;49.602;11.046;2023-07-20T08:22:52;22.20;99.90
3360;DHT22;1693;49.602;11.046;2023-07-20T08:25:19;22.20;99.90
3360;DHT22;1693;49.602;11.046;2023-07-20T08:27:47;22.30;99.90
3360;DHT22;1693;49.602;11.046;2023-07-20T08:30:15;22.20;99.90
3360;DHT22;1693;49.602;11.046;2023-07-20T08:32:42;22.30;99.90
3360;DHT22;1693;49.602;11.046;2023-07-20T08:35:09;22.30;99.90
3360;DHT22;1693;49.602;11.046;2023-07-20T08:37:37;22.10;99.90
3360;DHT22;1693;49.602;11.046;2023-07-20T08:40:07;22.10;99.90
3360;DHT22;1693;49.602;11.046;2023-07-20T08:45:06;22.10;99.90
3360;DHT22;1693;49.602;11.046;2023-07-20T08:47:37;22.10;99.90
3360;DHT22;1693;49.602;11.046;2023-07-20T08:50:09;22.00;99.90
3360;DHT22;1693;49.602;11.046;2023-07-20T08:52:37;22.30;99.90
3360;DHT22;1693;49.602;11.046;2023-07-20T08:55:05;22.60;99.90
3360;DHT22;1693;49.602;11.046;2023-07-20T08:57:34;23.00;99.90
3360;DHT22;1693;49.602;11.046;2023-07-20T09:00:08;23.10;99.90
3360;DHT22;1693;49.602;11.046;2023-07-20T09:02:42;23.20;99.90
3360;DHT22;1693;49.602;11.046;2023-07-20T09:05:13;23.20;99.90
3360;DHT22;1693;49.602;11.046;2023-07-20T09:07:42;22.70;99.90
3360;DHT22;1693;49.602;11.046;2023-07-20T09:10:12;22.70;99.90
3360;DHT22;1693;49.602;11.046;2023-07-20T09:12:43;22.50;99.90
3360;DHT22;1693;49.602;11.046;2023-07-20T09:15:11;22.60;99.90
3360;DHT22;1693;49.602;11.046;2023-07-20T09:17:38;22.60;99.90
3360;DHT22;1693;49.602;11.046;2023-07-20T09:20:11;23.00;99.90
3360;DHT22;1693;49.602;11.046;2023-07-20T09:22:39;23.00;99.90
3360;DHT22;1693;49.602;11.046;2023-07-20T09:25:11;23.30;99.90
3360;DHT22;1693;49.602;11.046;2023-07-20T09:27:41;23.50;99.90
3360;DHT22;1693;49.602;11.046;2023-07-20T09:30:10;23.60;99.90
3360;DHT22;1693;49.602;11.046;2023-07-20T09:32:39;23.60;99.40
3360;DHT22;1693;49.602;11.046;2023-07-20T09:35:12;23.60;99.90
3360;DHT22;1693;49.602;11.046;2023-07-20T09:37:46;23.70;99.40
3360;DHT22;1693;49.602;11.046;2023-07-20T09:40:15;23.80;99.40
3360;DHT22;1693;49.602;11.046;2023-07-20T09:42:44;23.70;98.00
3360;DHT22;1693;49.602;11.046;2023-07-20T09:45:11;23.40;97.10
3360;DHT22;1693;49.602;11.046;2023-07-20T09:47:39;23.30;97.90
3360;DHT22;1693;49.602;11.046;2023-07-20T09:50:08;23.00;98.00
3360;DHT22;1693;49.602;11.046;2023-07-20T09:52:41;22.70;98.40
3360;DHT22;1693;49.602;11.046;2023-07-20T09:55:10;22.60;99.00
3360;DHT22;1693;49.602;11.046;2023-07-20T09:57:37;22.70;99.00
3360;DHT22;1693;49.602;11.046;2023-07-20T10:00:06;23.10;99.20
3360;DHT22;1693;49.602;11.046;2023-07-20T10:02:42;23.50;96.50
3360;DHT22;1693;49.602;11.046;2023-07-20T10:05:13;23.30;96.40
3360;DHT22;1693;49.602;11.046;2023-07-20T10:07:44;23.50;95.50
3360;DHT22;1693;49.602;11.046;2023-07-20T10:10:14;23.60;95.70
3360;DHT22;1693;49.602;11.046;2023-07-20T10:12:43;23.60;95.10
3360;DHT22;1693;49.602;11.046;2023-07-20T10:15:13;23.80;95.30
3360;DHT22;1693;49.602;11.046;2023-07-20T10:17:57;23.70;93.50
3360;DHT22;1693;49.602;11.046;2023-07-20T10:20:27;23.70;93.80
3360;DHT22;1693;49.602;11.046;2023-07-20T10:22:56;23.60;93.40
3360;DHT22;1693;49.602;11.046;2023-07-20T10:25:23;23.80;92.90
3360;DHT22;1693;49.602;11.046;2023-07-20T10:27:51;24.10;92.40
3360;DHT22;1693;49.602;11.046;2023-07-20T10:30:18;24.40;92.30
3360;DHT22;1693;49.602;11.046;2023-07-20T10:32:46;24.50;89.00
3360;DHT22;1693;49.602;11.046;2023-07-20T10:35:14;24.50;88.60
3360;DHT22;1693;49.602;11.046;2023-07-20T10:37:53;24.50;88.40
3360;DHT22;1693;49.602;11.046;2023-07-20T10:40:28;25.00;90.10
3360;DHT22;1693;49.602;11.046;2023-07-20T10:42:57;25.10;83.80
3360;DHT22;1693;49.602;11.046;2023-07-20T10:45:47;25.00;83.80
3360;DHT22;1693;49.602;11.046;2023-07-20T10:48:16;24.90;81.10
3360;DHT22;1693;49.602;11.046;2023-07-20T10:50:45;24.90;81.40
3360;DHT22;1693;49.602;11.046;2023-07-20T10:53:17;24.90;82.30
3360;DHT22;1693;49.602;11.046;2023-07-20T10:55:44;25.10;82.40
3360;DHT22;1693;49.602;11.046;2023-07-20T10:58:16;24.60;82.60
3360;DHT22;1693;49.602;11.046;2023-07-20T11:01:01;24.30;83.50
3360;DHT22;1693;49.602;11.046;2023-07-20T11:03:31;24.90;84.70
3360;DHT22;1693;49.602;11.046;2023-07-20T11:05:58;25.10;83.10
3360;DHT22;1693;49.602;11.046;2023-07-20T11:08:40;25.20;80.70
3360;DHT22;1693;49.602;11.046;2023-07-20T11:11:24;25.30;79.00
3360;DHT22;1693;49.602;11.046;2023-07-20T11:13:58;25.10;79.30
3360;DHT22;1693;49.602;11.046;2023-07-20T11:16:34;24.90;81.10
3360;DHT22;1693;49.602;11.046;2023-07-20T11:19:01;24.60;81.90
3360;DHT22;1693;49.602;11.046;2023-07-20T11:21:30;24.30;81.30
3360;DHT22;1693;49.602;11.046;2023-07-20T11:24:05;24.20;81.60
3360;DHT22;1693;49.602;11.046;2023-07-20T11:26:42;24.10;82.40
3360;DHT22;1693;49.602;11.046;2023-07-20T11:29:13;24.10;83.40
3360;DHT22;1693;49.602;11.046;2023-07-20T11:31:41;23.80;85.00
3360;DHT22;1693;49.602;11.046;2023-07-20T11:34:11;23.80;86.10
3360;DHT22;1693;49.602;11.046;2023-07-20T11:36:39;24.10;86.50
3360;DHT22;1693;49.602;11.046;2023-07-20T11:39:10;24.10;86.50
3360;DHT22;1693;49.602;11.046;2023-07-20T11:41:37;23.80;87.30
3360;DHT22;1693;49.602;11.046;2023-07-20T11:44:05;23.70;88.20
3360;DHT22;1693;49.602;11.046;2023-07-20T11:46:33;25.00;91.30
3360;DHT22;1693;49.602;11.046;2023-07-20T11:49:01;26.30;82.10
3360;DHT22;1693;49.602;11.046;2023-07-20T11:51:29;27.20;76.30
3360;DHT22;1693;49.602;11.046;2023-07-20T11:53:56;28.00;72.40
3360;DHT22;1693;49.602;11.046;2023-07-20T11:56:26;28.60;67.90
3360;DHT22;1693;49.602;11.046;2023-07-20T11:58:55;27.80;71.20
3360;DHT22;1693;49.602;11.046;2023-07-20T12:01:25;27.20;69.50
3360;DHT22;1693;49.602;11.046;2023-07-20T12:03:55;26.90;71.80
3360;DHT22;1693;49.602;11.046;2023-07-20T12:06:23;26.50;68.80
3360;DHT22;1693;49.602;11.046;2023-07-20T12:08:53;26.30;68.00
3360;DHT22;1693;49.602;11.046;2023-07-20T12:11:32;27.50;67.90
3360;DHT22;1693;49.602;11.046;2023-07-20T12:14:00;28.80;64.60
3360;DHT22;1693;49.602;11.046;2023-07-20T12:16:29;29.00;59.60
3360;DHT22;1693;49.602;11.046;2023-07-20T12:19:00;28.20;60.20
3360;DHT22;1693;49.602;11.046;2023-07-20T12:21:27;27.80;60.40
3360;DHT22;1693;49.602;11.046;2023-07-20T12:23:56;27.80;64.60
3360;DHT22;1693;49.602;11.046;2023-07-20T12:26:23;28.40;63.60
3360;DHT22;1693;49.602;11.046;2023-07-20T12:28:52;29.00;60.30
3360;DHT22;1693;49.602;11.046;2023-07-20T12:31:19;30.40;60.60
3360;DHT22;1693;49.602;11.046;2023-07-20T12:33:47;30.80;57.70
3360;DHT22;1693;49.602;11.046;2023-07-20T12:36:14;31.00;56.70
3360;DHT22;1693;49.602;11.046;2023-07-20T12:38:41;30.10;55.90
3360;DHT22;1693;49.602;11.046;2023-07-20T12:43:38;31.90;55.70
3360;DHT22;1693;49.602;11.046;2023-07-20T12:46:07;31.90;53.60
3360;DHT22;1693;49.602;11.046;2023-07-20T12:48:35;32.50;52.00
3360;DHT22;1693;49.602;11.046;2023-07-20T12:51:02;32.10;50.50
3360;DHT22;1693;49.602;11.046;2023-07-20T12:53:31;31.90;50.80
3360;DHT22;1693;49.602;11.046;2023-07-20T12:55:58;31.80;50.70
3360;DHT22;1693;49.602;11.046;2023-07-20T12:58:25;31.70;49.70
3360;DHT22;1693;49.602;11.046;2023-07-20T13:00:53;32.30;49.70
3360;DHT22;1693;49.602;11.046;2023-07-20T13:03:22;32.50;49.60
3360;DHT22;1693;49.602;11.046;2023-07-20T13:05:49;32.10;49.60
3360;DHT22;1693;49.602;11.046;2023-07-20T13:08:16;32.80;50.30
3360;DHT22;1693;49.602;11.046;2023-07-20T13:10:43;32.80;48.80
3360;DHT22;1693;49.602;11.046;2023-07-20T13:13:10;32.50;49.40
3360;DHT22;1693;49.602;11.046;2023-07-20T13:15:42;33.20;48.70
3360;DHT22;1693;49.602;11.046;2023-07-20T13:18:09;34.20;79.80
3360;DHT22;1693;49.602;11.046;2023-07-20T13:20:37;34.20;75.90
3360;DHT22;1693;49.602;11.046;2023-07-20T13:23:05;33.30;45.80
3360;DHT22;1693;49.602;11.046;2023-07-20T13:28:00;33.80;46.50
3360;DHT22;1693;49.602;11.046;2023-07-20T13:30:26;33.80;46.00
3360;DHT22;1693;49.602;11.046;2023-07-20T13:32:54;34.00;44.70
3360;DHT22;1693;49.602;11.046;2023-07-20T13:35:20;34.60;44.10
3360;DHT22;1693;49.602;11.046;2023-07-20T13:40:16;35.50;79.30
3360;DHT22;1693;49.602;11.046;2023-07-20T13:42:45;36.30;71.30
3360;DHT22;1693;49.602;11.046;2023-07-20T13:45:12;35.00;42.90
3360;DHT22;1693;49.602;11.046;2023-07-20T13:52:34;33.30;70.90
3360;DHT22;1693;49.602;11.046;2023-07-20T13:59:58;33.60;75.00
3360;DHT22;1693;49.602;11.046;2023-07-20T14:17:13;35.20;78.40
3360;DHT22;1693;49.602;11.046;2023-07-20T14:19:40;34.90;42.80
3360;DHT22;1693;49.602;11.046;2023-07-20T14:22:09;35.10;42.10
3360;DHT22;1693;49.602;11.046;2023-07-20T14:24:38;34.30;42.00
3360;DHT22;1693;49.602;11.046;2023-07-20T14:27:07;34.50;42.50
3360;DHT22;1693;49.602;11.046;2023-07-20T14:34:33;35.30;72.20
3360;DHT22;1693;49.602;11.046;2023-07-20T14:39:28;33.50;42.20
3360;DHT22;1693;49.602;11.046;2023-07-20T14:41:55;33.60;42.70
3360;DHT22;1693;49.602;11.046;2023-07-20T14:44:22;34.00;41.60
3360;DHT22;1693;49.602;11.046;2023-07-20T14:54:13;32.00;79.80
3360;DHT22;1693;49.602;11.046;2023-07-20T15:06:31;32.80;62.50
3360;DHT22;1693;49.602;11.046;2023-07-20T15:08:58;32.50;42.40
3360;DHT22;1693;49.602;11.046;2023-07-20T15:11:26;33.80;41.50
3360;DHT22;1693;49.602;11.046;2023-07-20T15:13:53;35.40;41.00
3360;DHT22;1693;49.602;11.046;2023-07-20T15:16:20;35.80;39.90
3360;DHT22;1693;49.602;11.046;2023-07-20T15:21:16;32.10;60.20
3360;DHT22;1693;49.602;11.046;2023-07-20T15:26:11;30.00;81.80
3360;DHT22;1693;49.602;11.046;2023-07-20T15:28:39;29.20;47.90
3360;DHT22;1693;49.602;11.046;2023-07-20T15:31:07;28.40;46.60
3360;DHT22;1693;49.602;11.046;2023-07-20T15:33:34;28.10;47.30
3360;DHT22;1693;49.602;11.046;2023-07-20T15:36:01;28.00;46.90
3360;DHT22;1693;49.602;11.046;2023-07-20T15:38:30;28.20;47.70
3360;DHT22;1693;49.602;11.046;2023-07-20T15:40:57;30.20;47.30
3360;DHT22;1693;49.602;11.046;2023-07-20T15:43:26;31.60;45.30
3360;DHT22;1693;49.602;11.046;2023-07-20T15:48:29;33.20;42.10
3360;DHT22;1693;49.602;11.046;2023-07-20T15:50:56;34.40;42.50
3360;DHT22;1693;49.602;11.046;2023-07-20T15:53:24;35.30;40.70
3360;DHT22;1693;49.602;11.046;2023-07-20T15:55:56;36.30;40.10
3360;DHT22;1693;49.602;11.046;2023-07-20T16:10:44;32.40;38.90
3360;DHT22;1693;49.602;11.046;2023-07-20T16:13:12;31.70;39.90
3360;DHT22;1693;49.602;11.046;2023-07-20T16:15:39;31.20;41.20
3360;DHT22;1693;49.602;11.046;2023-07-20T16:18:06;30.70;42.00
3360;DHT22;1693;49.602;11.046;2023-07-20T16:20:33;30.40;43.00
3360;DHT22;1693;49.602;11.046;2023-07-20T16:23:00;30.90;42.50
3360;DHT22;1693;49.602;11.046;2023-07-20T16:25:31;30.70;42.80
3360;DHT22;1693;49.602;11.046;2023-07-20T16:27:58;32.30;42.40
3360;DHT22;1693;49.602;11.046;2023-07-20T16:30:29;33.30;41.50
3360;DHT22;1693;49.602;11.046;2023-07-20T16:32:56;34.70;39.70
3360;DHT22;1693;49.602;11.046;2023-07-20T16:45:15;34.50;38.90
3360;DHT22;1693;49.602;11.046;2023-07-20T16:47:45;34.20;39.70
3360;DHT22;1693;49.602;11.046;2023-07-20T16:50:14;35.60;39.50
3360;DHT22;1693;49.602;11.046;2023-07-20T16:52:41;34.90;38.80
3360;DHT22;1693;49.602;11.046;2023-07-20T16:55:09;33.20;39.40
3360;DHT22;1693;49.602;11.046;2023-07-20T16:57:36;33.20;40.20
3360;DHT22;1693;49.602;11.046;2023-07-20T17:00:04;34.50;40.20
3360;DHT22;1693;49.602;11.046;2023-07-20T17:02:35;36.30;39.20
3360;DHT22;1693;49.602;11.046;2023-07-20T17:05:05;36.50;38.40
3360;DHT22;1693;49.602;11.046;2023-07-20T17:07:35;35.40;38.30
3360;DHT22;1693;49.602;11.046;2023-07-20T17:10:03;34.60;38.40
3360;DHT22;1693;49.602;11.046;2023-07-20T17:12:31;34.10;38.90
3360;DHT22;1693;49.602;11.046;2023-07-20T17:14:58;34.50;39.00
3360;DHT22;1693;49.602;11.046;2023-07-20T17:19:53;35.50;38.40
3360;DHT22;1693;49.602;11.046;2023-07-20T17:35:36;35.30;38.00
3360;DHT22;1693;49.602;11.046;2023-07-20T17:38:05;31.40;41.50
3360;DHT22;1693;49.602;11.046;2023-07-20T17:40:33;31.70;41.50
3360;DHT22;1693;49.602;11.046;2023-07-20T17:43:03;32.40;41.30
3360;DHT22;1693;49.602;11.046;2023-07-20T17:45:32;31.50;40.90